Time;durP1;ratioP1;P1;durP2;ratioP2;P2;SDS_P1;SDS_P2;PMS_P1;PMS_P2;Temp;Humidity;BMP_temperature;BMP_pressure;BME280_temperature;BME280_humidity;BME280_pressure;Samples;Min_cycle;Max_cycle;Signal;HPM_P1;HPM_P2
2022/03/08 00:01:58;;;;;;;2.80;2.00;;;1.20;99.90;;;;;;5012701;28;20427;-67
2022/03/08 00:04:25;;;;;;;3.23;2.83;;;1.20;99.90;;;;;;5012700;28;20215;-67
2022/03/08 00:06:51;;;;;;;2.00;1.90;;;1.10;99.90;;;;;;5012860;28;20563;-67
2022/03/08 00:09:17;;;;;;;3.83;2.57;;;1.00;99.90;;;;;;5012695;28;20418;-67
2022/03/08 00:11:42;;;;;;;3.07;2.77;;;1.00;99.90;;;;;;5012817;28;20768;-66
2022/03/08 00:14:08;;;;;;;6.03;1.90;;;1.00;99.90;;;;;;5012688;28;20172;-67
2022/03/08 00:16:33;;;;;;;2.43;2.23;;;1.00;99.90;;;;;;5012373;28;20196;-67
2022/03/08 00:18:59;;;;;;;3.13;2.50;;;1.10;99.90;;;;;;5012622;28;20591;-67
2022/03/08 00:21:24;;;;;;;1.83;1.73;;;1.10;99.90;;;;;;5012397;28;20189;-67
2022/03/08 00:23:50;;;;;;;3.17;2.87;;;1.20;99.90;;;;;;5012439;28;20165;-67
2022/03/08 00:26:15;;;;;;;1.60;1.50;;;1.20;99.90;;;;;;5012399;28;20551;-67
2022/03/08 00:28:41;;;;;;;2.77;2.17;;;1.10;99.90;;;;;;5012572;28;20173;-67
2022/03/08 00:31:07;;;;;;;1.73;1.60;;;1.10;99.90;;;;;;5012297;28;20882;-66
2022/03/08 00:33:33;;;;;;;1.70;1.60;;;1.10;99.90;;;;;;5012455;28;20667;-66
2022/03/08 00:35:59;;;;;;;1.80;1.70;;;1.00;99.90;;;;;;5012130;28;20450;-67
2022/03/08 00:38:24;;;;;;;6.83;2.17;;;1.00;99.90;;;;;;5012100;28;21098;-67
2022/03/08 00:40:50;;;;;;;3.43;2.00;;;0.90;99.90;;;;;;5012096;28;20212;-67
2022/03/08 00:43:16;;;;;;;2.03;1.60;;;0.80;99.90;;;;;;5012352;28;20164;-67
2022/03/08 00:45:41;;;;;;;2.03;1.80;;;0.90;99.90;;;;;;5011983;28;20176;-68
2022/03/08 00:48:07;;;;;;;4.23;1.87;;;0.90;99.90;;;;;;5012286;28;20407;-66
2022/03/08 00:50:33;;;;;;;8.83;2.83;;;0.90;99.90;;;;;;5012057;28;20261;-66
2022/03/08 00:53:00;;;;;;;3.77;3.07;;;0.80;99.90;;;;;;5012425;28;20181;-67
2022/03/08 00:55:28;;;;;;;2.23;2.00;;;0.80;99.90;;;;;;5012041;28;20457;-66
2022/03/08 00:57:54;;;;;;;1.80;1.70;;;0.80;99.90;;;;;;4994787;28;20414;-67
2022/03/08 01:00:23;;;;;;;1.30;1.20;;;0.80;99.90;;;;;;5011931;28;20489;-67
2022/03/08 01:02:49;;;;;;;6.27;2.27;;;0.70;99.90;;;;;;5012150;28;20443;-66
2022/03/08 01:05:15;;;;;;;2.07;1.90;;;0.70;99.90;;;;;;5011934;28;20438;-67
2022/03/08 01:07:40;;;;;;;2.60;1.73;;;0.70;99.90;;;;;;5011770;28;20170;-66
2022/03/08 01:10:09;;;;;;;5.87;2.97;;;0.70;99.90;;;;;;5011878;28;20184;-66
2022/03/08 01:12:35;;;;;;;3.10;2.40;;;0.60;99.90;;;;;;5011897;28;20491;-66
2022/03/08 01:15:01;;;;;;;1.80;1.70;;;0.60;99.90;;;;;;5011910;28;20949;-67
2022/03/08 01:17:27;;;;;;;2.70;2.17;;;0.50;99.90;;;;;;5013213;28;20407;-67
2022/03/08 01:19:53;;;;;;;4.90;2.53;;;0.50;99.90;;;;;;5013607;28;20423;-67
2022/03/08 01:22:18;;;;;;;1.73;1.63;;;0.60;99.90;;;;;;5013618;28;20410;-66
2022/03/08 01:24:44;;;;;;;2.20;1.80;;;0.60;99.90;;;;;;5011735;28;20169;-67
2022/03/08 01:27:09;;;;;;;2.07;1.97;;;0.70;99.90;;;;;;5011568;28;20332;-66
2022/03/08 01:29:34;;;;;;;2.60;2.40;;;0.70;99.90;;;;;;5011308;28;20172;-66
2022/03/08 01:32:00;;;;;;;1.57;1.47;;;0.60;99.90;;;;;;5011638;28;20178;-66
2022/03/08 01:34:25;;;;;;;1.67;1.57;;;0.70;99.90;;;;;;5011379;28;20194;-66
2022/03/08 01:36:51;;;;;;;2.70;2.43;;;0.70;99.90;;;;;;5011272;28;20208;-66
2022/03/08 01:39:16;;;;;;;1.27;1.20;;;0.70;99.90;;;;;;5011561;28;20183;-67
2022/03/08 01:41:45;;;;;;;2.50;2.30;;;0.60;99.90;;;;;;5012010;28;20223;-65
2022/03/08 01:44:11;;;;;;;1.90;1.80;;;0.60;99.90;;;;;;5011389;28;20195;-66
2022/03/08 01:46:36;;;;;;;2.57;2.10;;;0.60;99.90;;;;;;5011317;28;20408;-66
2022/03/08 01:49:04;;;;;;;2.60;2.37;;;0.60;99.90;;;;;;5011162;28;20453;-67
2022/03/08 01:51:30;;;;;;;2.47;1.77;;;0.60;99.90;;;;;;5014954;28;20187;-66
2022/03/08 01:53:55;;;;;;;2.30;1.60;;;0.60;99.90;;;;;;5014868;28;20901;-67
2022/03/08 01:56:21;;;;;;;1.47;1.37;;;0.60;99.90;;;;;;5014851;28;20220;-66
2022/03/08 01:58:47;;;;;;;1.47;1.30;;;0.50;99.90;;;;;;5014995;28;20271;-66
2022/03/08 02:01:12;;;;;;;1.63;1.53;;;0.50;99.90;;;;;;5014511;28;20893;-67
2022/03/08 02:03:38;;;;;;;2.70;2.50;;;0.40;99.90;;;;;;5014605;28;20161;-67
2022/03/08 02:06:03;;;;;;;1.60;1.50;;;0.40;99.90;;;;;;5014541;28;20164;-67
2022/03/08 02:08:30;;;;;;;1.80;1.70;;;0.40;99.90;;;;;;5014660;28;20586;-67
2022/03/08 02:10:55;;;;;;;4.97;1.93;;;0.40;99.90;;;;;;5013068;28;20196;-67
2022/03/08 02:13:21;;;;;;;3.83;1.73;;;0.30;99.90;;;;;;5014447;28;20426;-67
2022/03/08 02:15:49;;;;;;;3.47;2.13;;;0.30;99.90;;;;;;5014272;28;20192;-66
2022/03/08 02:18:14;;;;;;;1.67;1.57;;;0.30;99.90;;;;;;5014426;28;20904;-67
2022/03/08 02:20:40;;;;;;;3.73;3.43;;;0.30;99.90;;;;;;5014238;28;20419;-67
2022/03/08 02:23:05;;;;;;;2.40;1.80;;;0.30;99.90;;;;;;5014410;28;20172;-67
2022/03/08 02:25:30;;;;;;;2.60;2.50;;;0.30;99.90;;;;;;5014305;28;20537;-67
2022/03/08 02:27:56;;;;;;;2.90;2.70;;;0.30;99.90;;;;;;5014181;28;20177;-67
2022/03/08 02:30:23;;;;;;;1.60;1.50;;;0.30;99.90;;;;;;5014167;28;20192;-67
2022/03/08 02:32:50;;;;;;;2.30;2.10;;;0.20;99.90;;;;;;5013727;28;20172;-66
2022/03/08 02:35:22;;;;;;;2.93;2.70;;;0.20;99.90;;;;;;5014125;28;20494;-67
2022/03/08 02:37:53;;;;;;;3.00;2.40;;;0.20;99.90;;;;;;5014086;28;20403;-66
2022/03/08 02:40:25;;;;;;;1.50;1.40;;;0.20;99.90;;;;;;5013837;28;20454;-67
2022/03/08 02:42:52;;;;;;;6.40;3.43;;;0.30;99.90;;;;;;5013867;28;20487;-67
2022/03/08 02:45:17;;;;;;;5.20;4.40;;;0.30;99.90;;;;;;5013713;28;20404;-66
2022/03/08 02:47:44;;;;;;;3.33;2.50;;;0.30;99.90;;;;;;5013622;28;20403;-67
2022/03/08 02:50:11;;;;;;;1.73;1.63;;;0.30;99.90;;;;;;5014144;28;20424;-66
2022/03/08 02:52:39;;;;;;;2.50;1.73;;;0.30;99.90;;;;;;5013961;28;20395;-67
2022/03/08 02:55:06;;;;;;;2.20;2.00;;;0.20;99.90;;;;;;5013769;28;20415;-67
2022/03/08 02:57:32;;;;;;;3.43;1.97;;;0.20;99.90;;;;;;5013679;28;20489;-67
2022/03/08 02:59:57;;;;;;;2.63;2.30;;;0.20;99.90;;;;;;5013346;28;20542;-67
2022/03/08 03:02:23;;;;;;;2.43;1.93;;;0.10;99.90;;;;;;5011609;28;20685;-67
2022/03/08 03:04:48;;;;;;;1.60;1.50;;;0.10;99.90;;;;;;5013423;28;20168;-67
2022/03/08 03:07:14;;;;;;;2.80;2.57;;;0.10;99.90;;;;;;5013607;28;20194;-66
2022/03/08 03:09:40;;;;;;;3.13;1.60;;;0.10;99.90;;;;;;5013358;28;20302;-66
2022/03/08 03:12:06;;;;;;;3.07;1.50;;;0.10;99.90;;;;;;5013292;28;20848;-67
2022/03/08 03:14:32;;;;;;;3.60;3.30;;;0.10;99.90;;;;;;5013368;28;20182;-67
2022/03/08 03:16:57;;;;;;;1.60;1.50;;;0.10;99.90;;;;;;5013544;28;20454;-66
2022/03/08 03:19:23;;;;;;;2.30;2.20;;;0.10;99.90;;;;;;5013017;28;20572;-66
2022/03/08 03:21:48;;;;;;;2.17;1.97;;;0.10;99.90;;;;;;5013142;28;20218;-65
2022/03/08 03:24:14;;;;;;;2.30;1.83;;;0.10;99.90;;;;;;5013110;28;20178;-66
2022/03/08 03:26:39;;;;;;;4.70;3.40;;;0.10;99.90;;;;;;5012985;28;20608;-66
2022/03/08 03:29:05;;;;;;;2.37;2.20;;;0.10;99.90;;;;;;5013021;28;20210;-67
2022/03/08 03:31:30;;;;;;;2.50;2.27;;;0.10;99.90;;;;;;5012704;28;20192;-67
2022/03/08 03:33:56;;;;;;;2.67;2.47;;;0.00;99.90;;;;;;5012624;28;20164;-67
2022/03/08 03:36:21;;;;;;;2.50;2.30;;;0.00;99.90;;;;;;5012788;28;20317;-67
2022/03/08 03:38:47;;;;;;;1.70;1.60;;;0.10;99.90;;;;;;5012735;28;20489;-67
2022/03/08 03:41:12;;;;;;;2.50;2.40;;;0.10;99.90;;;;;;5012464;28;20231;-67
2022/03/08 03:43:38;;;;;;;2.23;2.03;;;0.10;99.90;;;;;;5012600;28;20280;-67
2022/03/08 03:46:05;;;;;;;1.63;1.53;;;0.10;99.90;;;;;;5012509;28;20199;-67
2022/03/08 03:48:30;;;;;;;1.40;1.30;;;0.10;99.90;;;;;;5012843;28;20183;-67
2022/03/08 03:50:56;;;;;;;2.40;2.00;;;0.00;99.90;;;;;;5012516;28;20434;-66
2022/03/08 03:53:21;;;;;;;3.53;1.57;;;0.00;99.90;;;;;;5012534;28;20545;-66
2022/03/08 03:55:47;;;;;;;1.93;1.70;;;0.00;99.90;;;;;;5012259;28;20218;-66
2022/03/08 03:58:12;;;;;;;1.43;1.30;;;0.00;99.90;;;;;;5012250;28;20168;-66
2022/03/08 04:00:37;;;;;;;2.30;1.57;;;0.00;99.90;;;;;;5011957;28;20188;-66
2022/03/08 04:03:03;;;;;;;1.70;1.60;;;-0.10;99.90;;;;;;5012596;28;20530;-66
2022/03/08 04:05:29;;;;;;;1.50;1.40;;;-0.10;99.90;;;;;;5012222;28;20171;-67
2022/03/08 04:07:54;;;;;;;4.30;1.70;;;-0.10;99.90;;;;;;5012156;28;20616;-66
2022/03/08 04:10:20;;;;;;;1.43;1.33;;;-0.20;99.90;;;;;;5012085;28;20200;-66
2022/03/08 04:12:46;;;;;;;1.87;1.77;;;-0.20;99.90;;;;;;5011136;28;20164;-67
2022/03/08 04:15:12;;;;;;;1.73;1.63;;;-0.20;99.90;;;;;;5011690;28;20203;-67
2022/03/08 04:17:37;;;;;;;1.77;1.67;;;-0.20;99.90;;;;;;5012173;28;20176;-66
2022/03/08 04:20:07;;;;;;;12.17;1.87;;;-0.30;99.90;;;;;;5012264;28;20489;-68
2022/03/08 04:22:33;;;;;;;2.00;1.10;;;-0.30;99.90;;;;;;5011725;28;20418;-67
2022/03/08 04:24:59;;;;;;;1.97;1.87;;;-0.30;99.90;;;;;;5011718;28;20762;-67
2022/03/08 04:27:24;;;;;;;2.43;1.90;;;-0.30;99.90;;;;;;5011813;28;20176;-67
2022/03/08 04:29:50;;;;;;;1.70;1.60;;;-0.30;99.90;;;;;;5011635;28;20431;-67
2022/03/08 04:32:15;;;;;;;2.30;1.80;;;-0.30;99.90;;;;;;5011667;28;20632;-68
2022/03/08 04:34:41;;;;;;;2.50;2.23;;;-0.30;99.90;;;;;;5011774;28;20275;-67
2022/03/08 04:37:06;;;;;;;2.63;2.30;;;-0.30;99.90;;;;;;5011675;28;20199;-67
2022/03/08 04:39:32;;;;;;;1.20;1.10;;;-0.30;99.90;;;;;;5011623;28;20697;-67
2022/03/08 04:41:57;;;;;;;1.30;1.23;;;-0.30;99.90;;;;;;5011384;28;20176;-67
2022/03/08 04:44:23;;;;;;;2.10;2.00;;;-0.30;99.90;;;;;;5011358;28;20412;-66
2022/03/08 04:46:48;;;;;;;1.40;1.30;;;-0.30;99.90;;;;;;5011479;28;20581;-66
2022/03/08 04:49:14;;;;;;;1.80;1.70;;;-0.30;99.90;;;;;;5010073;28;20186;-68
2022/03/08 04:51:39;;;;;;;1.83;1.73;;;-0.40;99.90;;;;;;5011369;28;20559;-67
2022/03/08 04:54:05;;;;;;;1.93;1.83;;;-0.40;99.90;;;;;;5011413;28;20179;-67
2022/03/08 04:56:31;;;;;;;1.83;1.73;;;-0.40;99.90;;;;;;4993507;28;20246;-68
2022/03/08 04:58:58;;;;;;;1.50;1.40;;;-0.50;99.90;;;;;;5011731;28;20169;-67
2022/03/08 05:01:23;;;;;;;1.70;1.57;;;-0.50;99.90;;;;;;5011431;28;20184;-67
2022/03/08 05:03:49;;;;;;;2.30;2.20;;;-0.50;99.90;;;;;;5011304;28;20601;-67
2022/03/08 05:06:15;;;;;;;2.50;2.30;;;-0.40;99.90;;;;;;5011688;28;20279;-68
2022/03/08 05:08:41;;;;;;;2.30;2.17;;;-0.40;99.90;;;;;;5011490;28;20180;-68
2022/03/08 05:11:06;;;;;;;4.23;1.60;;;-0.40;99.90;;;;;;5011980;28;20469;-68
2022/03/08 05:13:32;;;;;;;2.60;2.40;;;-0.30;99.90;;;;;;5012107;28;20172;-68
2022/03/08 05:15:57;;;;;;;2.90;2.13;;;-0.30;99.90;;;;;;5011215;28;20570;-68
2022/03/08 05:18:23;;;;;;;4.70;2.50;;;-0.30;99.90;;;;;;5011153;28;20168;-68
2022/03/08 05:20:49;;;;;;;5.53;2.27;;;-0.40;99.90;;;;;;5010984;28;20188;-68
2022/03/08 05:23:14;;;;;;;2.60;2.40;;;-0.30;99.90;;;;;;5010865;28;20256;-67
2022/03/08 05:25:41;;;;;;;3.03;2.13;;;-0.30;99.90;;;;;;5011076;28;20278;-67
2022/03/08 05:28:07;;;;;;;1.73;1.63;;;-0.30;99.90;;;;;;5010833;28;20179;-67
2022/03/08 05:30:32;;;;;;;3.50;2.10;;;-0.30;99.90;;;;;;5010755;28;20431;-68
2022/03/08 05:32:58;;;;;;;1.80;1.50;;;-0.40;99.90;;;;;;5011073;28;20513;-67
2022/03/08 05:35:23;;;;;;;1.87;1.77;;;-0.40;99.90;;;;;;5010670;28;20613;-68
2022/03/08 05:37:49;;;;;;;2.37;1.60;;;-0.40;99.90;;;;;;5010859;28;20172;-68
2022/03/08 05:40:14;;;;;;;3.47;3.17;;;-0.40;99.90;;;;;;5010731;28;20242;-68
2022/03/08 05:42:40;;;;;;;1.73;1.63;;;-0.40;99.90;;;;;;5010668;28;20536;-69
2022/03/08 05:45:07;;;;;;;1.83;1.70;;;-0.40;99.90;;;;;;5010683;28;20168;-68
2022/03/08 05:47:33;;;;;;;3.30;2.10;;;-0.40;99.90;;;;;;5011045;28;20184;-68
2022/03/08 05:49:59;;;;;;;2.03;1.83;;;-0.30;99.90;;;;;;5010702;28;20929;-68
2022/03/08 05:52:24;;;;;;;2.20;2.00;;;-0.40;99.90;;;;;;5010788;28;20521;-68
2022/03/08 05:54:50;;;;;;;2.80;2.63;;;-0.40;99.90;;;;;;5010417;28;20506;-68
2022/03/08 05:57:15;;;;;;;10.13;2.57;;;-0.40;99.90;;;;;;5010447;28;20202;-68
2022/03/08 05:59:41;;;;;;;2.80;2.00;;;-0.40;99.90;;;;;;5010742;28;20437;-68
2022/03/08 06:02:06;;;;;;;2.67;2.47;;;-0.40;99.90;;;;;;5010740;28;20659;-68
2022/03/08 06:04:32;;;;;;;1.40;1.30;;;-0.40;99.90;;;;;;5010482;28;20181;-67
2022/03/08 06:06:57;;;;;;;2.30;2.10;;;-0.30;99.90;;;;;;5010766;28;20243;-66
2022/03/08 06:09:22;;;;;;;2.43;2.30;;;-0.30;99.90;;;;;;5010943;28;20179;-68
2022/03/08 06:11:48;;;;;;;4.13;2.40;;;-0.30;99.90;;;;;;5010502;28;20702;-67
2022/03/08 06:14:13;;;;;;;3.10;2.80;;;-0.30;99.90;;;;;;5010536;28;20183;-67
2022/03/08 06:16:39;;;;;;;8.60;2.30;;;-0.20;99.90;;;;;;5010470;28;20214;-68
2022/03/08 06:19:04;;;;;;;4.57;2.80;;;-0.10;99.90;;;;;;5010588;28;20169;-66
2022/03/08 06:21:30;;;;;;;4.20;2.30;;;0.00;99.90;;;;;;5010496;28;20663;-68
2022/03/08 06:23:55;;;;;;;3.10;2.20;;;0.10;99.90;;;;;;5010485;28;20238;-67
2022/03/08 06:26:21;;;;;;;2.00;1.90;;;0.10;99.90;;;;;;5010389;28;20179;-68
2022/03/08 06:28:46;;;;;;;2.20;2.10;;;0.20;99.90;;;;;;5010470;28;20173;-67
2022/03/08 06:31:12;;;;;;;2.17;2.07;;;0.30;99.90;;;;;;5010475;28;20635;-66
2022/03/08 06:33:37;;;;;;;5.87;3.47;;;0.50;99.90;;;;;;5010545;28;20168;-67
2022/03/08 06:36:03;;;;;;;3.23;2.30;;;0.60;99.90;;;;;;5011835;28;20218;-67
2022/03/08 06:38:28;;;;;;;4.00;2.27;;;0.80;99.90;;;;;;5014016;28;20224;-67
2022/03/08 06:41:00;;;;;;;3.27;3.00;;;1.20;99.90;;;;;;5014235;28;20222;-67
2022/03/08 06:43:25;;;;;;;5.17;4.60;;;2.20;99.90;;;;;;4995959;28;20193;-69
2022/03/08 06:45:51;;;;;;;3.30;3.00;;;3.00;99.90;;;;;;5013885;28;20461;-69
2022/03/08 06:48:16;;;;;;;3.77;3.47;;;3.70;99.90;;;;;;5013554;28;20204;-67
2022/03/08 06:50:42;;;;;;;4.80;2.63;;;4.00;99.90;;;;;;5013487;28;20207;-68
2022/03/08 06:53:07;;;;;;;2.70;1.90;;;3.90;99.90;;;;;;5013343;28;20203;-67
2022/03/08 06:55:35;;;;;;;3.73;3.20;;;4.70;99.90;;;;;;5013175;28;20681;-67
2022/03/08 06:58:01;;;;;;;2.70;2.50;;;5.40;99.90;;;;;;5013584;28;20172;-67
2022/03/08 07:00:26;;;;;;;5.83;2.77;;;6.00;99.90;;;;;;5013501;28;20446;-68
2022/03/08 07:02:52;;;;;;;8.30;2.77;;;5.20;99.90;;;;;;5013337;28;20492;-67
2022/03/08 07:05:17;;;;;;;2.33;2.10;;;5.10;99.90;;;;;;5013335;28;20183;-67
2022/03/08 07:07:43;;;;;;;2.50;2.30;;;5.60;99.90;;;;;;5013450;28;20303;-69
2022/03/08 07:10:08;;;;;;;4.33;2.67;;;6.70;99.90;;;;;;5013140;28;20551;-68
2022/03/08 07:12:34;;;;;;;2.83;2.13;;;6.70;99.90;;;;;;5013329;28;20251;-68
2022/03/08 07:14:59;;;;;;;5.40;2.80;;;6.30;99.90;;;;;;5013304;28;20572;-68
2022/03/08 07:17:25;;;;;;;4.23;3.10;;;5.30;99.90;;;;;;5013390;28;20200;-67
2022/03/08 07:19:50;;;;;;;4.30;2.37;;;5.20;99.90;;;;;;5013495;28;20203;-68
2022/03/08 07:22:17;;;;;;;3.17;2.87;;;5.60;99.90;;;;;;5013103;28;20203;-67
2022/03/08 07:24:43;;;;;;;4.40;3.30;;;6.30;99.90;;;;;;5012863;28;20180;-67
2022/03/08 07:27:09;;;;;;;2.93;2.03;;;6.50;99.90;;;;;;5012895;28;20894;-68
2022/03/08 07:29:36;;;;;;;4.50;2.63;;;6.40;99.90;;;;;;5013158;28;20407;-68
2022/03/08 07:32:01;;;;;;;4.60;2.83;;;6.80;99.90;;;;;;5012893;28;20187;-68
2022/03/08 07:34:27;;;;;;;6.63;3.70;;;7.10;99.90;;;;;;5012832;28;20478;-68
2022/03/08 07:36:53;;;;;;;4.27;2.93;;;7.90;99.90;;;;;;5013101;28;20200;-69
2022/03/08 07:39:18;;;;;;;3.97;3.57;;;8.30;99.90;;;;;;5012800;28;20165;-66
2022/03/08 07:41:44;;;;;;;3.83;3.53;;;8.60;99.90;;;;;;5012299;28;20209;-67
2022/03/08 07:44:09;;;;;;;4.27;3.33;;;8.50;99.90;;;;;;5012819;28;20299;-66
2022/03/08 07:46:35;;;;;;;3.97;3.00;;;8.30;99.90;;;;;;5012658;28;20604;-66
2022/03/08 07:49:01;;;;;;;5.60;3.50;;;9.10;99.90;;;;;;5012593;28;20171;-67
2022/03/08 07:51:27;;;;;;;3.07;2.77;;;9.10;99.90;;;;;;5012544;28;20767;-68
2022/03/08 07:53:52;;;;;;;3.27;2.90;;;8.90;99.90;;;;;;5012396;28;20174;-68
2022/03/08 07:56:18;;;;;;;3.83;3.33;;;8.80;99.90;;;;;;5013002;28;20230;-67
2022/03/08 07:58:43;;;;;;;4.90;3.10;;;8.70;99.90;;;;;;5013862;28;20164;-67
2022/03/08 08:01:09;;;;;;;3.00;2.70;;;8.70;99.90;;;;;;5013212;28;20311;-69
2022/03/08 08:03:34;;;;;;;2.80;2.10;;;9.00;99.90;;;;;;5013107;28;20629;-68
2022/03/08 08:06:02;;;;;;;3.40;3.10;;;9.00;99.90;;;;;;5012591;28;20173;-68
2022/03/08 08:08:28;;;;;;;2.87;2.20;;;9.50;99.90;;;;;;5012758;28;20242;-69
2022/03/08 08:10:53;;;;;;;2.30;2.10;;;9.00;99.90;;;;;;5012479;28;20453;-66
2022/03/08 08:13:19;;;;;;;3.80;3.20;;;8.60;99.90;;;;;;5012571;28;20191;-67
2022/03/08 08:15:44;;;;;;;2.50;2.03;;;8.70;99.90;;;;;;5012599;28;20628;-67
2022/03/08 08:18:10;;;;;;;3.03;2.33;;;9.60;99.90;;;;;;5012596;28;20659;-66
2022/03/08 08:20:35;;;;;;;2.93;2.40;;;9.90;99.90;;;;;;5012466;28;20225;-67
2022/03/08 08:23:01;;;;;;;2.73;2.53;;;9.90;99.90;;;;;;5012425;28;20543;-67
2022/03/08 08:25:26;;;;;;;3.30;2.97;;;9.80;99.90;;;;;;5012577;28;20176;-67
2022/03/08 08:27:52;;;;;;;2.60;2.40;;;8.70;99.90;;;;;;5012644;28;20605;-68
2022/03/08 08:30:18;;;;;;;3.80;1.93;;;8.40;99.90;;;;;;5012581;28;20565;-68
2022/03/08 08:32:44;;;;;;;2.97;2.23;;;8.50;99.90;;;;;;5012665;28;20175;-66
2022/03/08 08:35:10;;;;;;;3.33;3.03;;;8.40;99.90;;;;;;5012546;28;20179;-66
2022/03/08 08:37:36;;;;;;;3.03;2.23;;;8.60;99.90;;;;;;5012053;28;20540;-67
2022/03/08 08:40:04;;;;;;;3.47;3.17;;;8.50;99.90;;;;;;5011759;28;20535;-68
2022/03/08 08:42:29;;;;;;;3.87;2.77;;;8.60;99.90;;;;;;5012334;28;20551;-67
2022/03/08 08:44:55;;;;;;;4.73;2.00;;;9.70;99.90;;;;;;5012002;28;20418;-67
2022/03/08 08:47:20;;;;;;;2.50;2.30;;;12.20;99.90;;;;;;5012389;28;20575;-67
2022/03/08 08:49:45;;;;;;;2.37;2.17;;;13.60;99.90;;;;;;5011979;28;20192;-66
2022/03/08 08:52:11;;;;;;;2.30;2.00;;;13.60;97.00;;;;;;5011897;28;20182;-66
2022/03/08 08:54:37;;;;;;;3.13;2.40;;;14.00;96.90;;;;;;5011831;28;20265;-69
2022/03/08 08:57:02;;;;;;;2.70;2.10;;;13.50;96.50;;;;;;5011849;28;20204;-66
2022/03/08 08:59:28;;;;;;;2.80;2.47;;;12.60;92.90;;;;;;5011342;28;20626;-66
2022/03/08 09:01:53;;;;;;;2.70;2.17;;;12.90;95.00;;;;;;5011862;28;20175;-67
2022/03/08 09:04:19;;;;;;;2.50;2.07;;;12.80;92.80;;;;;;5011813;28;20248;-70
2022/03/08 09:06:44;;;;;;;3.10;2.80;;;12.50;94.20;;;;;;5011968;28;20181;-68
2022/03/08 09:09:10;;;;;;;2.47;2.27;;;12.80;93.00;;;;;;5011555;28;20592;-67
2022/03/08 09:11:36;;;;;;;3.70;2.63;;;12.10;92.80;;;;;;5011742;28;20204;-67
2022/03/08 09:14:02;;;;;;;2.37;2.00;;;12.50;93.30;;;;;;5011674;28;20420;-67
2022/03/08 09:16:28;;;;;;;3.60;2.43;;;12.30;92.60;;;;;;5011500;28;20580;-66
2022/03/08 09:18:53;;;;;;;2.37;2.00;;;11.90;91.60;;;;;;5011443;28;20418;-66
2022/03/08 09:21:19;;;;;;;5.47;2.33;;;11.60;92.50;;;;;;5011232;28;20197;-67
2022/03/08 09:23:44;;;;;;;3.67;2.67;;;11.90;92.80;;;;;;5011197;28;20215;-67
2022/03/08 09:26:10;;;;;;;2.67;2.40;;;11.80;92.30;;;;;;5011678;28;20634;-67
2022/03/08 09:28:36;;;;;;;1.83;1.63;;;12.40;91.70;;;;;;5011375;28;20178;-66
2022/03/08 09:31:01;;;;;;;3.10;2.37;;;12.20;91.70;;;;;;5011278;28;20563;-68
2022/03/08 09:33:27;;;;;;;3.27;2.70;;;12.80;90.80;;;;;;5011378;28;20192;-68
2022/03/08 09:35:53;;;;;;;1.97;1.80;;;12.70;91.20;;;;;;5011236;28;20287;-68
2022/03/08 09:38:18;;;;;;;2.10;1.90;;;12.50;90.20;;;;;;5011227;28;20831;-68
2022/03/08 09:40:44;;;;;;;2.43;2.23;;;12.30;90.70;;;;;;5011283;28;20207;-66
2022/03/08 09:43:10;;;;;;;2.90;2.47;;;10.50;91.30;;;;;;5011325;28;20691;-66
2022/03/08 09:45:35;;;;;;;2.97;2.07;;;10.40;93.50;;;;;;5011120;28;20178;-66
2022/03/08 09:48:02;;;;;;;2.43;2.23;;;10.10;93.80;;;;;;5011362;28;20187;-68
2022/03/08 09:50:29;;;;;;;2.57;2.07;;;10.60;93.00;;;;;;5010909;28;20209;-66
2022/03/08 09:52:56;;;;;;;3.10;2.80;;;10.30;93.10;;;;;;5010980;28;20429;-66
2022/03/08 09:55:24;;;;;;;3.57;2.00;;;10.50;92.50;;;;;;5011122;28;20414;-66
2022/03/08 09:57:51;;;;;;;3.20;2.17;;;10.90;92.20;;;;;;5011364;28;20480;-66
2022/03/08 10:00:16;;;;;;;2.90;2.33;;;11.50;91.20;;;;;;5011067;28;20530;-67
2022/03/08 10:02:52;;;;;;;3.43;3.13;;;10.50;91.10;;;;;;5011483;28;21202;-67
2022/03/08 10:05:26;;;;;;;2.30;2.10;;;10.20;92.20;;;;;;5011122;28;20167;-66
2022/03/08 10:08:27;;;;;;;2.07;1.90;;;9.40;93.50;;;;;;5011100;28;20513;-66
2022/03/08 10:10:59;;;;;;;2.30;2.00;;;9.90;93.90;;;;;;4932622;29;20839;-66
2022/03/08 10:13:27;;;;;;;5.10;3.20;;;9.90;93.80;;;;;;5001888;28;20415;-69
2022/03/08 10:16:22;;;;;;;2.27;2.07;;;8.90;93.80;;;;;;5014752;28;20450;-68
2022/03/08 10:18:53;;;;;;;3.53;2.10;;;8.70;94.40;;;;;;5015210;28;20407;-69
2022/03/08 10:21:36;;;;;;;2.30;1.60;;;9.00;93.60;;;;;;5014620;28;20424;-68
2022/03/08 10:24:12;;;;;;;2.50;1.40;;;9.20;94.00;;;;;;5014655;28;20775;-68
2022/03/08 10:26:52;;;;;;;5.30;1.97;;;9.10;94.40;;;;;;5014708;28;20399;-68
2022/03/08 10:29:36;;;;;;;3.70;1.90;;;9.20;93.70;;;;;;5038090;22;20474;-71
2022/03/08 10:32:09;;;;;;;4.50;1.97;;;9.30;93.80;;;;;;5015667;28;20420;-71
2022/03/08 10:34:39;;;;;;;2.23;1.90;;;9.30;93.30;;;;;;5015659;28;20478;-72
2022/03/08 10:37:09;;;;;;;3.70;1.60;;;8.70;93.00;;;;;;5015012;28;20557;-72
2022/03/08 10:39:46;;;;;;;1.50;1.40;;;8.90;94.50;;;;;;5015442;28;20427;-71
2022/03/08 10:42:18;;;;;;;1.80;1.67;;;9.00;93.80;;;;;;5015667;28;20928;-72
2022/03/08 10:44:44;;;;;;;1.50;1.30;;;9.10;93.20;;;;;;5015298;28;20407;-71
2022/03/08 10:47:14;;;;;;;1.30;1.20;;;8.90;94.30;;;;;;5016050;28;20414;-71
2022/03/08 10:49:54;;;;;;;1.77;1.43;;;9.00;97.00;;;;;;5015601;28;20197;-71
2022/03/08 10:52:30;;;;;;;2.03;1.60;;;8.60;95.40;;;;;;5015939;28;20411;-72
2022/03/08 10:55:14;;;;;;;1.73;1.30;;;8.30;95.40;;;;;;5015222;28;20915;-70
2022/03/08 10:57:44;;;;;;;1.40;1.30;;;8.40;95.70;;;;;;5015277;28;20959;-70
2022/03/08 11:00:14;;;;;;;2.53;1.43;;;8.80;96.00;;;;;;5015227;28;20451;-71
2022/03/08 11:02:49;;;;;;;2.23;1.47;;;9.10;94.60;;;;;;5014980;28;20407;-71
2022/03/08 11:05:16;;;;;;;2.00;1.30;;;9.10;93.40;;;;;;5014717;28;20971;-71
2022/03/08 11:07:42;;;;;;;1.20;1.10;;;8.90;93.30;;;;;;5014946;28;20465;-71
2022/03/08 11:10:10;;;;;;;1.27;1.17;;;8.90;93.30;;;;;;5014622;28;20911;-71
2022/03/08 11:12:37;;;;;;;1.77;1.30;;;8.80;93.30;;;;;;5012945;28;20175;-71
2022/03/08 11:15:05;;;;;;;1.57;1.47;;;8.70;93.40;;;;;;5014320;28;20411;-71
2022/03/08 11:17:34;;;;;;;1.13;0.93;;;8.80;94.50;;;;;;5014726;28;20458;-71
2022/03/08 11:20:03;;;;;;;2.53;1.77;;;9.20;95.00;;;;;;5014442;28;20838;-71
2022/03/08 11:22:30;;;;;;;1.87;1.40;;;9.30;97.50;;;;;;5014774;28;20412;-72
2022/03/08 11:24:56;;;;;;;1.10;1.00;;;9.10;95.10;;;;;;5016181;28;20396;-72
2022/03/08 11:27:22;;;;;;;1.70;1.60;;;9.30;95.90;;;;;;5014701;28;20830;-71
2022/03/08 11:29:49;;;;;;;9.07;1.70;;;9.50;96.00;;;;;;5014585;28;20543;-71
2022/03/08 11:32:21;;;;;;;2.30;1.27;;;9.40;93.60;;;;;;5014634;28;20259;-71
2022/03/08 11:35:02;;;;;;;2.13;1.40;;;9.10;92.60;;;;;;5014288;28;20405;-70
2022/03/08 11:37:33;;;;;;;1.47;1.37;;;9.30;92.70;;;;;;5014340;28;20449;-71
2022/03/08 11:40:11;;;;;;;1.43;1.10;;;9.50;93.10;;;;;;5014206;28;20432;-71
2022/03/08 11:42:44;;;;;;;1.33;1.23;;;9.60;94.30;;;;;;5014105;28;21058;-71
2022/03/08 11:45:16;;;;;;;1.43;1.33;;;9.70;94.10;;;;;;5013904;28;20835;-72
2022/03/08 11:47:44;;;;;;;2.83;1.47;;;9.50;92.50;;;;;;4995020;28;20505;-71
2022/03/08 11:50:29;;;;;;;1.97;1.37;;;9.60;95.20;;;;;;4977204;28;20475;-70
2022/03/08 11:53:07;;;;;;;1.77;1.53;;;9.70;95.20;;;;;;5006649;28;20426;-71
2022/03/08 11:55:36;;;;;;;1.07;1.00;;;9.80;97.70;;;;;;4996610;28;20488;-71
2022/03/08 11:58:08;;;;;;;1.43;1.33;;;9.90;93.90;;;;;;5013928;28;20411;-72
2022/03/08 12:00:46;;;;;;;5.13;1.40;;;9.60;92.20;;;;;;5013995;28;20405;-72
2022/03/08 12:03:22;;;;;;;3.57;1.30;;;10.00;95.10;;;;;;4996303;28;20407;-71
2022/03/08 12:05:58;;;;;;;2.20;1.53;;;10.30;94.20;;;;;;5013743;28;20493;-71
2022/03/08 12:08:32;;;;;;;2.00;1.20;;;10.00;91.60;;;;;;5013359;28;20441;-72
2022/03/08 12:11:03;;;;;;;1.47;1.20;;;10.20;95.60;;;;;;5013575;28;20435;-71
2022/03/08 12:13:47;;;;;;;2.93;2.00;;;10.50;95.40;;;;;;5016209;28;20907;-72
2022/03/08 12:16:25;;;;;;;1.47;1.10;;;10.40;92.10;;;;;;5030124;28;20547;-71
2022/03/08 12:18:52;;;;;;;1.20;1.10;;;10.10;93.40;;;;;;5018712;28;20437;-72
2022/03/08 12:21:17;;;;;;;1.50;1.20;;;10.20;93.90;;;;;;5007844;28;20510;-72
2022/03/08 12:23:46;;;;;;;2.07;1.20;;;10.20;92.70;;;;;;5017320;28;20443;-72
2022/03/08 12:26:41;;;;;;;1.23;1.13;;;10.10;88.40;;;;;;5014146;28;20263;-72
2022/03/08 12:29:10;;;;;;;1.10;0.87;;;9.90;90.40;;;;;;5013180;28;20464;-72
2022/03/08 12:31:57;;;;;;;1.20;1.10;;;10.00;88.20;;;;;;5014008;28;20486;-71
2022/03/08 12:34:46;;;;;;;1.60;1.50;;;10.00;87.90;;;;;;4993387;28;20435;-72
2022/03/08 12:37:18;;;;;;;2.30;1.33;;;10.20;88.50;;;;;;4994220;28;20469;-72
2022/03/08 12:39:52;;;;;;;1.40;1.30;;;10.30;88.70;;;;;;4993795;28;20794;-72
2022/03/08 12:42:22;;;;;;;1.73;0.90;;;10.20;87.40;;;;;;4997213;28;20405;-72
2022/03/08 12:44:51;;;;;;;1.43;1.27;;;10.00;86.90;;;;;;5013498;28;20438;-72
2022/03/08 12:47:17;;;;;;;1.20;1.10;;;10.00;87.50;;;;;;5005804;28;20420;-71
2022/03/08 12:49:44;;;;;;;1.40;1.30;;;9.90;88.90;;;;;;4975977;28;20463;-71
2022/03/08 12:52:11;;;;;;;2.77;1.67;;;10.10;89.10;;;;;;4993439;28;20412;-71
2022/03/08 12:54:40;;;;;;;1.20;0.90;;;10.00;87.70;;;;;;5008451;28;20960;-71